sensor_id;sensor_type;location;lat;lon;timestamp;pressure;altitude;pressure_sealevel;temperature;humidity
39773;BME280;25451;51.960;6.250;2023-02-25T00:01:45;100488.91;;;4.72;81.14
39773;BME280;25451;51.960;6.250;2023-02-25T00:04:10;100507.78;;;4.80;80.93
39773;BME280;25451;51.960;6.250;2023-02-25T00:06:35;100492.88;;;4.76;80.85
39773;BME280;25451;51.960;6.250;2023-02-25T00:09:01;100503.56;;;4.84;80.75
39773;BME280;25451;51.960;6.250;2023-02-25T00:11:26;100494.53;;;4.77;81.08
39773;BME280;25451;51.960;6.250;2023-02-25T00:13:52;100507.56;;;4.82;80.58
39773;BME280;25451;51.960;6.250;2023-02-25T00:16:20;100509.47;;;4.81;80.70
39773;BME280;25451;51.960;6.250;2023-02-25T00:18:46;100491.41;;;4.74;81.05
39773;BME280;25451;51.960;6.250;2023-02-25T00:21:14;100488.03;;;4.72;81.13
39773;BME280;25451;51.960;6.250;2023-02-25T00:23:44;100489.72;;;4.73;80.65
39773;BME280;25451;51.960;6.250;2023-02-25T00:26:10;100488.91;;;4.72;80.63
39773;BME280;25451;51.960;6.250;2023-02-25T00:28:36;100488.84;;;4.79;80.81
39773;BME280;25451;51.960;6.250;2023-02-25T00:31:06;100491.59;;;4.79;80.75
39773;BME280;25451;51.960;6.250;2023-02-25T00:33:32;100488.03;;;4.78;80.91
39773;BME280;25451;51.960;6.250;2023-02-25T00:35:57;100493.91;;;4.82;80.79
39773;BME280;25451;51.960;6.250;2023-02-25T00:38:23;100481.31;;;4.74;80.85
39773;BME280;25451;51.960;6.250;2023-02-25T00:40:48;100490.53;;;4.80;80.65
39773;BME280;25451;51.960;6.250;2023-02-25T00:43:13;100499.16;;;4.83;80.99
39773;BME280;25451;51.960;6.250;2023-02-25T00:45:39;100490.31;;;4.81;80.52
39773;BME280;25451;51.960;6.250;2023-02-25T00:48:05;100501.66;;;4.85;80.84
39773;BME280;25451;51.960;6.250;2023-02-25T00:50:31;100501.47;;;4.86;80.70
39773;BME280;25451;51.960;6.250;2023-02-25T00:52:56;100500.63;;;4.86;81.03
39773;BME280;25451;51.960;6.250;2023-02-25T00:55:22;100485.94;;;4.74;80.70
39773;BME280;25451;51.960;6.250;2023-02-25T00:57:47;100501.25;;;4.88;81.11
39773;BME280;25451;51.960;6.250;2023-02-25T01:00:13;100498.50;;;4.88;80.97
39773;BME280;25451;51.960;6.250;2023-02-25T01:02:42;100505.44;;;4.90;81.16
39773;BME280;25451;51.960;6.250;2023-02-25T01:05:10;100511.72;;;4.91;80.82
39773;BME280;25451;51.960;6.250;2023-02-25T01:07:36;100507.75;;;4.87;80.50
39773;BME280;25451;51.960;6.250;2023-02-25T01:10:02;100513.66;;;4.90;80.93
39773;BME280;25451;51.960;6.250;2023-02-25T01:12:28;100514.06;;;4.87;81.29
39773;BME280;25451;51.960;6.250;2023-02-25T01:14:55;100501.47;;;4.80;80.88
39773;BME280;25451;51.960;6.250;2023-02-25T01:17:21;100498.97;;;4.78;80.98
39773;BME280;25451;51.960;6.250;2023-02-25T01:19:46;100523.13;;;4.88;80.92
39773;BME280;25451;51.960;6.250;2023-02-25T01:22:12;100492.66;;;4.71;80.80
39773;BME280;25451;51.960;6.250;2023-02-25T01:24:37;100504.63;;;4.83;80.96
39773;BME280;25451;51.960;6.250;2023-02-25T01:27:03;100505.69;;;4.82;80.85
39773;BME280;25451;51.960;6.250;2023-02-25T01:29:31;100501.88;;;4.83;81.03
39773;BME280;25451;51.960;6.250;2023-02-25T01:31:59;100511.34;;;4.81;80.78
39773;BME280;25451;51.960;6.250;2023-02-25T01:34:26;100499.78;;;4.79;80.88
39773;BME280;25451;51.960;6.250;2023-02-25T01:36:53;100493.91;;;4.75;81.03
39773;BME280;25451;51.960;6.250;2023-02-25T01:39:20;100506.09;;;4.79;80.92
39773;BME280;25451;51.960;6.250;2023-02-25T01:41:46;100509.47;;;4.75;81.28
39773;BME280;25451;51.960;6.250;2023-02-25T01:44:19;100511.16;;;4.76;81.06
39773;BME280;25451;51.960;6.250;2023-02-25T01:46:47;100508.44;;;4.69;80.86
39773;BME280;25451;51.960;6.250;2023-02-25T01:49:35;100510.94;;;4.71;80.84
39773;BME280;25451;51.960;6.250;2023-02-25T01:52:08;100519.38;;;4.76;80.96
39773;BME280;25451;51.960;6.250;2023-02-25T01:54:36;100520.00;;;4.71;81.21
39773;BME280;25451;51.960;6.250;2023-02-25T01:57:08;100501.09;;;4.63;80.72
39773;BME280;25451;51.960;6.250;2023-02-25T01:59:34;100504.44;;;4.72;80.94
39773;BME280;25451;51.960;6.250;2023-02-25T02:02:01;100512.22;;;4.68;81.13
39773;BME280;25451;51.960;6.250;2023-02-25T02:04:26;100499.00;;;4.65;80.86
39773;BME280;25451;51.960;6.250;2023-02-25T02:06:53;100521.25;;;4.75;81.10
39773;BME280;25451;51.960;6.250;2023-02-25T02:09:26;100513.69;;;4.71;80.99
39773;BME280;25451;51.960;6.250;2023-02-25T02:11:54;100509.06;;;4.65;80.79
39773;BME280;25451;51.960;6.250;2023-02-25T02:14:24;100515.56;;;4.70;80.89
39773;BME280;25451;51.960;6.250;2023-02-25T02:17:02;100514.53;;;4.71;80.97
39773;BME280;25451;51.960;6.250;2023-02-25T02:25:24;100505.31;;;4.66;81.06
39773;BME280;25451;51.960;6.250;2023-02-25T02:36:31;100496.66;;;4.62;80.87
39773;BME280;25451;51.960;6.250;2023-02-25T02:39:12;100507.38;;;4.70;80.98
39773;BME280;25451;51.960;6.250;2023-02-25T02:41:50;100518.31;;;4.70;80.80
39773;BME280;25451;51.960;6.250;2023-02-25T02:44:31;100508.44;;;4.69;81.18
39773;BME280;25451;51.960;6.250;2023-02-25T02:47:34;100516.66;;;4.69;80.80
39773;BME280;25451;51.960;6.250;2023-02-25T02:50:05;100504.47;;;4.65;81.17
39773;BME280;25451;51.960;6.250;2023-02-25T02:52:35;100518.31;;;4.70;81.08
39773;BME280;25451;51.960;6.250;2023-02-25T02:55:11;100512.22;;;4.68;80.93
39773;BME280;25451;51.960;6.250;2023-02-25T02:57:40;100510.16;;;4.64;81.21
39773;BME280;25451;51.960;6.250;2023-02-25T03:00:11;100515.78;;;4.69;81.32
39773;BME280;25451;51.960;6.250;2023-02-25T03:02:54;100496.72;;;4.56;81.12
39773;BME280;25451;51.960;6.250;2023-02-25T03:05:22;100521.03;;;4.70;81.03
39773;BME280;25451;51.960;6.250;2023-02-25T03:07:57;100521.88;;;4.71;81.10
39773;BME280;25451;51.960;6.250;2023-02-25T03:10:24;100502.81;;;4.58;81.11
39773;BME280;25451;51.960;6.250;2023-02-25T03:12:50;100516.03;;;4.67;80.90
39773;BME280;25451;51.960;6.250;2023-02-25T03:15:16;100515.78;;;4.69;81.12
39773;BME280;25451;51.960;6.250;2023-02-25T03:17:45;100524.22;;;4.67;81.22
39773;BME280;25451;51.960;6.250;2023-02-25T03:20:17;100527.16;;;4.66;81.18
39773;BME280;25451;51.960;6.250;2023-02-25T03:22:46;100533.25;;;4.74;81.10
39773;BME280;25451;51.960;6.250;2023-02-25T03:25:19;100531.78;;;4.72;81.33
39773;BME280;25451;51.960;6.250;2023-02-25T03:27:46;100519.38;;;4.69;81.06
39773;BME280;25451;51.960;6.250;2023-02-25T03:30:43;100534.69;;;4.77;81.25
39773;BME280;25451;51.960;6.250;2023-02-25T03:33:24;100540.16;;;4.77;80.87
39773;BME280;25451;51.960;6.250;2023-02-25T03:35:53;100541.63;;;4.79;81.13
39773;BME280;25451;51.960;6.250;2023-02-25T03:38:24;100528.84;;;4.73;80.74
39773;BME280;25451;51.960;6.250;2023-02-25T03:40:53;100527.97;;;4.79;80.95
39773;BME280;25451;51.960;6.250;2023-02-25T03:43:27;100523.56;;;4.78;81.00
39773;BME280;25451;51.960;6.250;2023-02-25T03:45:54;100511.81;;;4.71;80.57
39773;BME280;25451;51.960;6.250;2023-02-25T03:48:20;100529.22;;;4.77;80.93
39773;BME280;25451;51.960;6.250;2023-02-25T03:50:51;100538.91;;;4.79;81.22
39773;BME280;25451;51.960;6.250;2023-02-25T03:53:17;100537.88;;;4.80;81.13
39773;BME280;25451;51.960;6.250;2023-02-25T03:55:43;100542.72;;;4.78;81.25
39773;BME280;25451;51.960;6.250;2023-02-25T03:58:09;100555.09;;;4.81;80.87
39773;BME280;25451;51.960;6.250;2023-02-25T04:00:35;100533.91;;;4.70;80.96
39773;BME280;25451;51.960;6.250;2023-02-25T04:03:02;100548.19;;;4.78;81.13
39773;BME280;25451;51.960;6.250;2023-02-25T04:05:28;100555.31;;;4.86;80.87
39773;BME280;25451;51.960;6.250;2023-02-25T04:07:55;100545.63;;;4.83;81.32
39773;BME280;25451;51.960;6.250;2023-02-25T04:10:20;100556.16;;;4.86;80.92
39773;BME280;25451;51.960;6.250;2023-02-25T04:12:46;100553.41;;;4.86;80.97
39773;BME280;25451;51.960;6.250;2023-02-25T04:15:12;100556.78;;;4.82;80.87
39773;BME280;25451;51.960;6.250;2023-02-25T04:17:42;100541.22;;;4.76;81.00
39773;BME280;25451;51.960;6.250;2023-02-25T04:20:10;100557.19;;;4.85;80.87
39773;BME280;25451;51.960;6.250;2023-02-25T04:22:35;100542.72;;;4.78;81.26
39773;BME280;25451;51.960;6.250;2023-02-25T04:25:01;100546.47;;;4.77;80.39
39773;BME280;25451;51.960;6.250;2023-02-25T04:27:26;100546.69;;;4.82;80.86
39773;BME280;25451;51.960;6.250;2023-02-25T04:29:52;100556.97;;;4.87;80.94
39773;BME280;25451;51.960;6.250;2023-02-25T04:32:17;100543.34;;;4.74;81.31
39773;BME280;25451;51.960;6.250;2023-02-25T04:34:42;100571.47;;;4.87;81.13
39773;BME280;25451;51.960;6.250;2023-02-25T04:37:08;100575.06;;;4.88;81.00
39773;BME280;25451;51.960;6.250;2023-02-25T04:39:34;100575.91;;;4.88;81.07
39773;BME280;25451;51.960;6.250;2023-02-25T04:42:00;100575.91;;;4.82;81.32
39773;BME280;25451;51.960;6.250;2023-02-25T04:44:26;100580.53;;;4.81;80.96
39773;BME280;25451;51.960;6.250;2023-02-25T04:46:51;100576.56;;;4.84;80.70
39773;BME280;25451;51.960;6.250;2023-02-25T04:49:20;100590.22;;;4.90;80.95
39773;BME280;25451;51.960;6.250;2023-02-25T04:51:47;100584.53;;;4.85;81.19
39773;BME280;25451;51.960;6.250;2023-02-25T04:54:14;100590.41;;;4.89;81.09
39773;BME280;25451;51.960;6.250;2023-02-25T04:56:39;100587.47;;;4.90;80.96
39773;BME280;25451;51.960;6.250;2023-02-25T04:59:05;100586.84;;;4.88;81.16
39773;BME280;25451;51.960;6.250;2023-02-25T05:01:30;100560.78;;;4.79;80.89
39773;BME280;25451;51.960;6.250;2023-02-25T05:03:57;100576.72;;;4.89;81.26
39773;BME280;25451;51.960;6.250;2023-02-25T05:06:25;100541.88;;;4.71;81.19
39773;BME280;25451;51.960;6.250;2023-02-25T05:08:51;100548.19;;;4.78;81.09
39773;BME280;25451;51.960;6.250;2023-02-25T05:11:17;100561.19;;;4.83;81.10
39773;BME280;25451;51.960;6.250;2023-02-25T05:13:43;100567.72;;;4.88;80.85
39773;BME280;25451;51.960;6.250;2023-02-25T05:16:11;100575.91;;;4.88;81.27
39773;BME280;25451;51.960;6.250;2023-02-25T05:18:40;100574.84;;;4.89;81.10
39773;BME280;25451;51.960;6.250;2023-02-25T05:21:08;100585.38;;;4.92;81.02
39773;BME280;25451;51.960;6.250;2023-02-25T05:23:34;100571.47;;;4.87;81.00
39773;BME280;25451;51.960;6.250;2023-02-25T05:25:59;100579.69;;;4.87;80.91
39773;BME280;25451;51.960;6.250;2023-02-25T05:28:24;100565.00;;;4.75;80.72
39773;BME280;25451;51.960;6.250;2023-02-25T05:30:50;100591.66;;;4.93;80.82
39773;BME280;25451;51.960;6.250;2023-02-25T05:33:16;100580.53;;;4.88;81.04
39773;BME280;25451;51.960;6.250;2023-02-25T05:35:42;100588.50;;;4.89;80.96
39773;BME280;25451;51.960;6.250;2023-02-25T05:38:07;100589.38;;;4.90;80.64
39773;BME280;25451;51.960;6.250;2023-02-25T05:40:32;100570.88;;;4.79;80.87
39773;BME280;25451;51.960;6.250;2023-02-25T05:43:00;100593.13;;;4.89;80.90
39773;BME280;25451;51.960;6.250;2023-02-25T05:45:25;100595.06;;;4.88;81.00
39773;BME280;25451;51.960;6.250;2023-02-25T05:47:51;100578.25;;;4.78;80.99
39773;BME280;25451;51.960;6.250;2023-02-25T05:50:16;100592.72;;;4.85;81.00
39773;BME280;25451;51.960;6.250;2023-02-25T05:52:42;100585.59;;;4.84;81.26
39773;BME280;25451;51.960;6.250;2023-02-25T05:55:08;100590.00;;;4.85;80.91
39773;BME280;25451;51.960;6.250;2023-02-25T05:57:34;100570.91;;;4.72;80.74
39773;BME280;25451;51.960;6.250;2023-02-25T05:59:59;100594.84;;;4.83;80.99
39773;BME280;25451;51.960;6.250;2023-02-25T06:02:26;100592.31;;;4.82;80.95
39773;BME280;25451;51.960;6.250;2023-02-25T06:04:54;100576.38;;;4.72;81.05
39773;BME280;25451;51.960;6.250;2023-02-25T06:07:20;100579.50;;;4.76;80.76
39773;BME280;25451;51.960;6.250;2023-02-25T06:09:45;100593.59;;;4.79;81.09
39773;BME280;25451;51.960;6.250;2023-02-25T06:12:10;100592.78;;;4.72;81.01
39773;BME280;25451;51.960;6.250;2023-02-25T06:14:37;100600.75;;;4.74;81.22
39773;BME280;25451;51.960;6.250;2023-02-25T06:17:02;100606.44;;;4.72;80.93
39773;BME280;25451;51.960;6.250;2023-02-25T06:19:28;100612.94;;;4.78;81.12
39773;BME280;25451;51.960;6.250;2023-02-25T06:21:54;100599.28;;;4.71;81.07
39773;BME280;25451;51.960;6.250;2023-02-25T06:24:20;100605.38;;;4.73;80.95
39773;BME280;25451;51.960;6.250;2023-02-25T06:26:46;100610.44;;;4.76;80.94
39773;BME280;25451;51.960;6.250;2023-02-25T06:29:12;100611.69;;;4.74;81.11
39773;BME280;25451;51.960;6.250;2023-02-25T06:31:37;100631.22;;;4.77;81.07
39773;BME280;25451;51.960;6.250;2023-02-25T06:34:03;100632.94;;;4.78;81.08
39773;BME280;25451;51.960;6.250;2023-02-25T06:36:30;100630.19;;;4.78;80.89
39773;BME280;25451;51.960;6.250;2023-02-25T06:38:56;100633.97;;;4.77;80.77
39773;BME280;25451;51.960;6.250;2023-02-25T06:41:22;100643.66;;;4.80;81.03
39773;BME280;25451;51.960;6.250;2023-02-25T06:43:48;100652.88;;;4.79;80.67
39773;BME280;25451;51.960;6.250;2023-02-25T06:46:18;100656.47;;;4.79;80.97
39773;BME280;25451;51.960;6.250;2023-02-25T06:48:44;100664.66;;;4.79;80.88
39773;BME280;25451;51.960;6.250;2023-02-25T06:51:09;100642.59;;;4.74;80.61
39773;BME280;25451;51.960;6.250;2023-02-25T06:53:41;100657.53;;;4.78;80.92
39773;BME280;25451;51.960;6.250;2023-02-25T06:56:07;100656.47;;;4.79;81.01
39773;BME280;25451;51.960;6.250;2023-02-25T06:58:33;100667.63;;;4.78;80.91
39773;BME280;25451;51.960;6.250;2023-02-25T07:00:59;100654.97;;;4.70;80.88
39773;BME280;25451;51.960;6.250;2023-02-25T07:03:25;100657.09;;;4.68;80.88
39773;BME280;25451;51.960;6.250;2023-02-25T07:05:51;100656.69;;;4.71;80.94
39773;BME280;25451;51.960;6.250;2023-02-25T07:08:16;100654.56;;;4.73;80.95
39773;BME280;25451;51.960;6.250;2023-02-25T07:10:41;100672.25;;;4.77;80.97
39773;BME280;25451;51.960;6.250;2023-02-25T07:13:08;100668.88;;;4.75;80.77
39773;BME280;25451;51.960;6.250;2023-02-25T07:15:33;100682.34;;;4.83;80.96
39773;BME280;25451;51.960;6.250;2023-02-25T07:17:59;100656.91;;;4.63;80.91
39773;BME280;25451;51.960;6.250;2023-02-25T07:20:24;100674.97;;;4.77;80.87
39773;BME280;25451;51.960;6.250;2023-02-25T07:22:50;100678.97;;;4.75;80.58
39773;BME280;25451;51.960;6.250;2023-02-25T07:25:15;100681.50;;;4.76;80.64
39773;BME280;25451;51.960;6.250;2023-02-25T07:27:41;100677.50;;;4.72;80.61
39773;BME280;25451;51.960;6.250;2023-02-25T07:30:07;100691.59;;;4.82;80.69
39773;BME280;25451;51.960;6.250;2023-02-25T07:32:33;100707.16;;;4.88;80.78
39773;BME280;25451;51.960;6.250;2023-02-25T07:34:58;100719.13;;;4.87;80.75
39773;BME280;25451;51.960;6.250;2023-02-25T07:37:24;100704.22;;;4.83;80.43
39773;BME280;25451;51.960;6.250;2023-02-25T07:39:49;100712.19;;;4.85;80.72
39773;BME280;25451;51.960;6.250;2023-02-25T07:42:15;100717.47;;;4.86;80.80
39773;BME280;25451;51.960;6.250;2023-02-25T07:44:40;100720.22;;;4.86;80.74
39773;BME280;25451;51.960;6.250;2023-02-25T07:47:05;100711.38;;;4.84;80.41
39773;BME280;25451;51.960;6.250;2023-02-25T07:49:31;100719.56;;;4.91;80.51
39773;BME280;25451;51.960;6.250;2023-02-25T07:51:56;100729.44;;;4.92;80.56
39773;BME280;25451;51.960;6.250;2023-02-25T07:54:21;100719.38;;;4.92;80.78
39773;BME280;25451;51.960;6.250;2023-02-25T07:56:47;100720.63;;;4.96;80.82
39773;BME280;25451;51.960;6.250;2023-02-25T07:59:17;100726.28;;;4.95;80.40
39773;BME280;25451;51.960;6.250;2023-02-25T08:01:42;100731.97;;;4.93;80.69
39773;BME280;25451;51.960;6.250;2023-02-25T08:04:08;100731.56;;;4.96;80.35
39773;BME280;25451;51.960;6.250;2023-02-25T08:06:36;100725.03;;;4.97;80.42
39773;BME280;25451;51.960;6.250;2023-02-25T08:09:06;100739.13;;;5.01;80.27
39773;BME280;25451;51.960;6.250;2023-02-25T08:11:32;100726.50;;;4.93;80.46
39773;BME280;25451;51.960;6.250;2023-02-25T08:13:59;100746.28;;;5.09;80.22
39773;BME280;25451;51.960;6.250;2023-02-25T08:16:25;100745.44;;;5.08;80.52
39773;BME280;25451;51.960;6.250;2023-02-25T08:18:52;100730.72;;;5.02;80.57
39773;BME280;25451;51.960;6.250;2023-02-25T08:21:19;100725.66;;;4.99;79.97
39773;BME280;25451;51.960;6.250;2023-02-25T08:23:46;100758.06;;;5.16;80.23
39773;BME280;25451;51.960;6.250;2023-02-25T08:26:13;100763.53;;;5.16;80.39
39773;BME280;25451;51.960;6.250;2023-02-25T08:28:42;100747.94;;;5.10;80.53
39773;BME280;25451;51.960;6.250;2023-02-25T08:31:08;100750.69;;;5.10;80.07
39773;BME280;25451;51.960;6.250;2023-02-25T08:33:38;100756.78;;;5.12;80.63
39773;BME280;25451;51.960;6.250;2023-02-25T08:36:09;100774.06;;;5.19;80.18
39773;BME280;25451;51.960;6.250;2023-02-25T08:38:36;100780.78;;;5.23;80.16
39773;BME280;25451;51.960;6.250;2023-02-25T08:41:02;100781.00;;;5.21;80.47
39773;BME280;25451;51.960;6.250;2023-02-25T08:43:27;100776.34;;;5.22;80.19
39773;BME280;25451;51.960;6.250;2023-02-25T08:45:53;100762.69;;;5.22;80.03
39773;BME280;25451;51.960;6.250;2023-02-25T08:48:20;100773.00;;;5.26;80.28
39773;BME280;25451;51.960;6.250;2023-02-25T08:50:46;100786.47;;;5.34;79.79
39773;BME280;25451;51.960;6.250;2023-02-25T08:53:11;100790.91;;;5.35;80.24
39773;BME280;25451;51.960;6.250;2023-02-25T08:55:37;100787.53;;;5.33;80.30
39773;BME280;25451;51.960;6.250;2023-02-25T08:58:04;100801.41;;;5.38;80.20
39773;BME280;25451;51.960;6.250;2023-02-25T09:00:29;100798.25;;;5.41;79.72
39773;BME280;25451;51.960;6.250;2023-02-25T09:02:55;100789.41;;;5.39;79.81
39773;BME280;25451;51.960;6.250;2023-02-25T09:05:20;100797.00;;;5.37;79.95
39773;BME280;25451;51.960;6.250;2023-02-25T09:07:49;100798.88;;;5.37;80.08
39773;BME280;25451;51.960;6.250;2023-02-25T09:10:14;100790.44;;;5.38;79.84
39773;BME280;25451;51.960;6.250;2023-02-25T09:12:39;100797.41;;;5.41;80.04
39773;BME280;25451;51.960;6.250;2023-02-25T09:15:06;100812.97;;;5.47;80.13
39773;BME280;25451;51.960;6.250;2023-02-25T09:17:32;100813.19;;;5.45;79.78
39773;BME280;25451;51.960;6.250;2023-02-25T09:19:58;100811.28;;;5.46;80.00
39773;BME280;25451;51.960;6.250;2023-02-25T09:22:25;100815.72;;;5.47;79.60
39773;BME280;25451;51.960;6.250;2023-02-25T09:24:51;100828.16;;;5.49;79.86
39773;BME280;25451;51.960;6.250;2023-02-25T09:27:16;100835.06;;;5.52;80.08
39773;BME280;25451;51.960;6.250;2023-02-25T09:29:41;100846.03;;;5.52;80.01
39773;BME280;25451;51.960;6.250;2023-02-25T09:32:16;100833.19;;;5.52;79.58
39773;BME280;25451;51.960;6.250;2023-02-25T09:34:41;100830.44;;;5.52;79.80
39773;BME280;25451;51.960;6.250;2023-02-25T09:37:06;100829.41;;;5.47;79.71
39773;BME280;25451;51.960;6.250;2023-02-25T09:39:33;100854.22;;;5.58;79.85
39773;BME280;25451;51.960;6.250;2023-02-25T09:45:15;100862.44;;;5.65;79.76
39773;BME280;25451;51.960;6.250;2023-02-25T09:47:46;100882.66;;;5.70;79.78
39773;BME280;25451;51.960;6.250;2023-02-25T09:50:27;100868.78;;;5.72;79.40
39773;BME280;25451;51.960;6.250;2023-02-25T09:55:37;100890.47;;;5.80;79.54
39773;BME280;25451;51.960;6.250;2023-02-25T10:00:49;100878.44;;;5.81;79.31
39773;BME280;25451;51.960;6.250;2023-02-25T10:03:24;100880.34;;;5.94;79.37
39773;BME280;25451;51.960;6.250;2023-02-25T10:06:01;100873.19;;;5.99;79.65
39773;BME280;25451;51.960;6.250;2023-02-25T10:08:33;100882.63;;;6.10;79.41
39773;BME280;25451;51.960;6.250;2023-02-25T10:16:44;100903.63;;;6.42;79.13
39773;BME280;25451;51.960;6.250;2023-02-25T10:19:38;100898.13;;;6.48;78.77
39773;BME280;25451;51.960;6.250;2023-02-25T10:27:32;100902.63;;;6.81;78.59
39773;BME280;25451;51.960;6.250;2023-02-25T10:30:23;100912.72;;;6.93;77.98
39773;BME280;25451;51.960;6.250;2023-02-25T10:32:49;100914.34;;;7.01;78.23
39773;BME280;25451;51.960;6.250;2023-02-25T10:35:28;100912.19;;;7.09;77.93
39773;BME280;25451;51.960;6.250;2023-02-25T10:37:56;100922.94;;;7.11;78.38
39773;BME280;25451;51.960;6.250;2023-02-25T10:40:23;100941.06;;;7.18;77.77
39773;BME280;25451;51.960;6.250;2023-02-25T10:42:51;100924.81;;;7.17;78.05
39773;BME280;25451;51.960;6.250;2023-02-25T10:45:29;100924.19;;;7.15;77.79
39773;BME280;25451;51.960;6.250;2023-02-25T10:48:05;100933.25;;;7.22;77.97
39773;BME280;25451;51.960;6.250;2023-02-25T10:50:31;100924.38;;;7.20;77.53
39773;BME280;25451;51.960;6.250;2023-02-25T10:53:00;100926.50;;;7.18;77.88
39773;BME280;25451;51.960;6.250;2023-02-25T10:55:39;100943.75;;;7.25;77.55
39773;BME280;25451;51.960;6.250;2023-02-25T10:58:26;100948.00;;;7.21;77.93
39773;BME280;25451;51.960;6.250;2023-02-25T11:01:20;100956.06;;;7.16;77.46
39773;BME280;25451;51.960;6.250;2023-02-25T11:04:02;100946.59;;;7.12;77.37
39773;BME280;25451;51.960;6.250;2023-02-25T11:06:34;100954.84;;;7.05;77.70
39773;BME280;25451;51.960;6.250;2023-02-25T11:09:06;100942.41;;;7.03;77.94
39773;BME280;25451;51.960;6.250;2023-02-25T11:11:58;100964.16;;;7.04;77.73
39773;BME280;25451;51.960;6.250;2023-02-25T11:14:29;100958.25;;;7.01;77.43
39773;BME280;25451;51.960;6.250;2023-02-25T11:17:10;100958.72;;;6.91;77.33
39773;BME280;25451;51.960;6.250;2023-02-25T11:19:46;100967.19;;;6.90;76.98
39773;BME280;25451;51.960;6.250;2023-02-25T11:22:21;100963.38;;;6.84;77.04
39773;BME280;25451;51.960;6.250;2023-02-25T11:24:59;100951.44;;;6.65;77.27
39773;BME280;25451;51.960;6.250;2023-02-25T11:29:54;100965.56;;;6.69;76.76
39773;BME280;25451;51.960;6.250;2023-02-25T11:32:24;100962.81;;;6.69;76.23
39773;BME280;25451;51.960;6.250;2023-02-25T11:34:52;100941.53;;;6.58;76.69
39773;BME280;25451;51.960;6.250;2023-02-25T11:37:35;100949.72;;;6.71;76.50
39773;BME280;25451;51.960;6.250;2023-02-25T11:40:23;100970.16;;;6.82;75.83
39773;BME280;25451;51.960;6.250;2023-02-25T11:43:17;100969.50;;;6.86;75.41
39773;BME280;25451;51.960;6.250;2023-02-25T11:46:06;100978.81;;;6.85;75.36
39773;BME280;25451;51.960;6.250;2023-02-25T11:48:54;100981.78;;;6.84;75.20
39773;BME280;25451;51.960;6.250;2023-02-25T11:52:13;100987.91;;;6.79;75.36
39773;BME280;25451;51.960;6.250;2023-02-25T11:54:25;100992.97;;;6.76;74.92
39773;BME280;25451;51.960;6.250;2023-02-25T12:00:02;100996.13;;;6.72;74.73
39773;BME280;25451;51.960;6.250;2023-02-25T12:27:05;100996.38;;;6.58;72.91
39773;BME280;25451;51.960;6.250;2023-02-25T12:43:42;100993.69;;;6.38;71.26
39773;BME280;25451;51.960;6.250;2023-02-25T13:02:23;101005.50;;;6.39;69.85
39773;BME280;25451;51.960;6.250;2023-02-25T13:05:15;101015.63;;;6.38;69.51
39773;BME280;25451;51.960;6.250;2023-02-25T13:13:41;101026.59;;;6.38;69.28
39773;BME280;25451;51.960;6.250;2023-02-25T13:18:45;101059.91;;;6.35;68.96
39773;BME280;25451;51.960;6.250;2023-02-25T13:21:44;101037.34;;;6.33;69.28
39773;BME280;25451;51.960;6.250;2023-02-25T13:32:48;101051.88;;;6.27;68.33
39773;BME280;25451;51.960;6.250;2023-02-25T13:35:34;101054.44;;;6.22;68.05
39773;BME280;25451;51.960;6.250;2023-02-25T13:49:34;101067.50;;;6.20;66.85
39773;BME280;25451;51.960;6.250;2023-02-25T13:55:23;101074.47;;;6.16;66.36
39773;BME280;25451;51.960;6.250;2023-02-25T14:04:09;101079.09;;;6.16;65.88
39773;BME280;25451;51.960;6.250;2023-02-25T14:06:51;101071.94;;;6.15;65.83
39773;BME280;25451;51.960;6.250;2023-02-25T14:09:32;101063.91;;;6.13;65.12
39773;BME280;25451;51.960;6.250;2023-02-25T14:18:05;101099.31;;;6.08;65.27
39773;BME280;25451;51.960;6.250;2023-02-25T14:23:09;101103.31;;;6.06;65.02
39773;BME280;25451;51.960;6.250;2023-02-25T14:26:04;101101.81;;;5.97;64.65
39773;BME280;25451;51.960;6.250;2023-02-25T14:33:54;101111.75;;;5.98;64.54
39773;BME280;25451;51.960;6.250;2023-02-25T14:36:39;101094.22;;;5.85;64.31
39773;BME280;25451;51.960;6.250;2023-02-25T14:39:21;101113.84;;;5.96;64.19
39773;BME280;25451;51.960;6.250;2023-02-25T14:42:22;101114.47;;;5.98;64.04
39773;BME280;25451;51.960;6.250;2023-02-25T14:44:55;101111.75;;;5.98;64.25
39773;BME280;25451;51.960;6.250;2023-02-25T14:47:32;101117.63;;;5.95;63.52
39773;BME280;25451;51.960;6.250;2023-02-25T14:50:10;101126.94;;;6.00;63.77
39773;BME280;25451;51.960;6.250;2023-02-25T14:57:53;101128.78;;;5.93;63.63
39773;BME280;25451;51.960;6.250;2023-02-25T15:00:34;101144.59;;;5.91;63.43
39773;BME280;25451;51.960;6.250;2023-02-25T15:20:25;101153.19;;;5.81;62.32
39773;BME280;25451;51.960;6.250;2023-02-25T15:35:59;101177.97;;;5.67;61.98
39773;BME280;25451;51.960;6.250;2023-02-25T15:38:47;101177.34;;;5.65;62.03
39773;BME280;25451;51.960;6.250;2023-02-25T15:43:55;101193.13;;;5.63;61.89
39773;BME280;25451;51.960;6.250;2023-02-25T15:51:43;101201.50;;;5.55;61.42
39773;BME280;25451;51.960;6.250;2023-02-25T15:54:10;101212.03;;;5.58;61.28
39773;BME280;25451;51.960;6.250;2023-02-25T16:04:50;101224.88;;;5.51;61.11
39773;BME280;25451;51.960;6.250;2023-02-25T16:07:19;101230.53;;;5.49;60.93
39773;BME280;25451;51.960;6.250;2023-02-25T16:09:49;101238.94;;;5.48;60.85
39773;BME280;25451;51.960;6.250;2023-02-25T16:12:17;101226.69;;;5.37;61.12
39773;BME280;25451;51.960;6.250;2023-02-25T16:14:43;101255.34;;;5.41;61.07
39773;BME280;25451;51.960;6.250;2023-02-25T16:17:31;101244.78;;;5.38;60.99
39773;BME280;25451;51.960;6.250;2023-02-25T16:20:11;101247.13;;;5.41;61.24
39773;BME280;25451;51.960;6.250;2023-02-25T16:22:43;101252.16;;;5.38;60.79
39773;BME280;25451;51.960;6.250;2023-02-25T16:25:13;101252.78;;;5.40;60.55
39773;BME280;25451;51.960;6.250;2023-02-25T16:33:14;101280.72;;;5.29;60.78
39773;BME280;25451;51.960;6.250;2023-02-25T16:36:23;101278.19;;;5.27;60.49
39773;BME280;25451;51.960;6.250;2023-02-25T16:38:55;101280.28;;;5.25;60.65